Corupa, Brazil
Current Conditions -  °F | °C
As of 12:00 PM on Wednesday 28 Jan 2015 (Local Time) from SBJV Reporting Station
Scattered Clouds Scattered Clouds  
Wind Chill: 86°   Ceiling: Unl
Heat Index: 97°   Visibility: 6mi
Dew Point: 77°   Wind: 7mph
Humidity: 74%   Direction: 90°E
Pressure: 29.85"   Gusts: NA
Location:  26.45°S, 49.22°W
Report Text: SBJV 281400Z 09006KT 9999 FEW020 FEW035TCU SCT100 30/25 Q1011
Loading
Personal Weather Stations






























Interactive Weather Map New forecast layout! Learn more

10-Day Weather Forecast

Advertisements
Track Severe Weather on mobile